createdAt,value
2023-01-13T00:01:26.337Z,93.47
2023-01-13T00:03:54.360Z,94.15
2023-01-13T00:06:27.943Z,93.93
2023-01-13T00:08:55.576Z,95.51
2023-01-13T00:11:22.983Z,94.42
2023-01-13T00:13:50.218Z,93.42
2023-01-13T00:16:19.489Z,93.91
2023-01-13T00:18:47.370Z,94.39
2023-01-13T00:21:19.112Z,94.26
2023-01-13T00:23:47.289Z,93.68
2023-01-13T00:26:20.661Z,94.11
2023-01-13T00:28:49.178Z,93.72
2023-01-13T00:31:21.173Z,92.71
2023-01-13T00:33:49.470Z,93.33
2023-01-13T00:36:19.482Z,94.62
2023-01-13T00:38:47.942Z,94.16
2023-01-13T00:41:18.501Z,93.60
2023-01-13T00:43:46.323Z,91.96
2023-01-13T00:46:20.358Z,93.99
2023-01-13T00:48:48.299Z,93.38
2023-01-13T00:51:18.877Z,92.82
2023-01-13T00:53:51.565Z,92.54
2023-01-13T00:56:38.416Z,93.25
2023-01-13T00:59:07.427Z,92.68
2023-01-13T01:01:35.184Z,92.79
2023-01-13T01:04:02.509Z,92.79
2023-01-13T01:06:30.067Z,93.02
2023-01-13T01:08:57.746Z,93.69
2023-01-13T01:11:32.627Z,93.85
2023-01-13T01:14:02.921Z,93.58
2023-01-13T01:16:31.831Z,93.62
2023-01-13T01:19:00.157Z,94.37
2023-01-13T01:21:28.968Z,94.26
2023-01-13T01:23:59.687Z,94.19
2023-01-13T01:26:29.028Z,93.37
2023-01-13T01:28:56.646Z,93.42
2023-01-13T01:31:33.903Z,93.73
2023-01-13T01:34:02.003Z,94.52
2023-01-13T01:36:32.125Z,93.40
2023-01-13T01:39:00.206Z,93.85
2023-01-13T01:41:32.093Z,94.25
2023-01-13T01:44:08.340Z,93.81
2023-01-13T01:46:42.489Z,93.50
2023-01-13T01:49:24.746Z,93.24
2023-01-13T01:52:00.843Z,93.12
2023-01-13T01:54:34.550Z,93.12
2023-01-13T01:57:02.423Z,93.41
2023-01-13T01:59:32.700Z,93.56
2023-01-13T02:02:00.366Z,92.66
2023-01-13T02:04:34.746Z,92.59
2023-01-13T02:07:03.505Z,92.26
2023-01-13T02:09:31.419Z,93.92
2023-01-13T02:12:17.395Z,94.62
2023-01-13T02:14:45.950Z,93.93
2023-01-13T02:17:22.359Z,94.25
2023-01-13T02:20:21.590Z,94.03
2023-01-13T02:22:54.965Z,93.44
2023-01-13T02:25:57.545Z,93.41
2023-01-13T02:29:08.743Z,92.82
2023-01-13T02:31:43.264Z,92.92
2023-01-13T02:34:23.064Z,93.55
2023-01-13T02:36:58.450Z,92.98
2023-01-13T02:39:28.867Z,93.07
2023-01-13T02:42:56.755Z,91.42
2023-01-13T02:45:31.597Z,91.54
2023-01-13T02:48:02.114Z,93.52
2023-01-13T02:50:35.534Z,92.03
2023-01-13T02:53:16.490Z,91.58
2023-01-13T02:55:49.953Z,92.34
2023-01-13T02:58:24.295Z,92.04
2023-01-13T03:00:52.479Z,92.44
2023-01-13T03:03:20.195Z,92.07
2023-01-13T03:05:51.719Z,91.54
2023-01-13T03:08:27.371Z,93.16
2023-01-13T03:11:13.051Z,92.54
2023-01-13T03:14:31.762Z,92.29
2023-01-13T03:17:37.657Z,92.35
2023-01-13T03:20:07.417Z,92.28
2023-01-13T03:22:45.569Z,91.12
2023-01-13T03:25:13.087Z,91.83
2023-01-13T03:27:53.048Z,91.86
2023-01-13T03:30:27.252Z,91.71
2023-01-13T03:33:27.993Z,90.59
2023-01-13T03:36:02.109Z,90.60
2023-01-13T03:38:39.939Z,89.78
2023-01-13T03:41:12.152Z,90.00
2023-01-13T03:44:08.575Z,90.61
2023-01-13T03:46:52.312Z,89.98
2023-01-13T03:49:24.538Z,90.71
2023-01-13T03:51:57.278Z,91.09
2023-01-13T03:54:28.467Z,90.62
2023-01-13T03:57:00.793Z,91.26
2023-01-13T03:59:33.499Z,90.65
2023-01-13T04:02:36.667Z,91.08
2023-01-13T04:05:09.365Z,90.69
2023-01-13T04:08:01.858Z,91.28
2023-01-13T04:10:40.211Z,90.83
2023-01-13T04:13:13.138Z,90.65
2023-01-13T04:15:44.514Z,91.36
2023-01-13T04:18:22.274Z,91.73
2023-01-13T04:20:53.161Z,91.96
2023-01-13T04:23:21.880Z,91.45
2023-01-13T04:25:50.739Z,91.07
2023-01-13T04:28:18.739Z,91.41
2023-01-13T04:30:46.603Z,91.32
2023-01-13T04:33:15.949Z,91.44
2023-01-13T04:35:45.134Z,91.25
2023-01-13T04:38:18.538Z,91.24
2023-01-13T04:40:46.718Z,91.43
2023-01-13T04:43:15.939Z,91.60
2023-01-13T04:45:43.655Z,91.35
2023-01-13T04:48:11.917Z,91.14
2023-01-13T04:50:39.683Z,91.60
2023-01-13T04:53:07.290Z,91.64
2023-01-13T04:55:35.883Z,91.92
2023-01-13T04:58:05.727Z,91.41
2023-01-13T05:00:33.445Z,91.61
2023-01-13T05:03:03.387Z,91.52
2023-01-13T05:05:31.036Z,90.73
2023-01-13T05:07:58.642Z,91.79
2023-01-13T05:10:27.505Z,91.75
2023-01-13T05:13:13.334Z,91.36
2023-01-13T05:16:00.938Z,91.24
2023-01-13T05:18:30.969Z,91.60
2023-01-13T05:20:58.705Z,91.26
2023-01-13T05:23:44.895Z,91.46
2023-01-13T05:26:12.504Z,91.38
2023-01-13T05:28:39.844Z,91.48
2023-01-13T05:31:07.278Z,91.28
2023-01-13T05:33:36.149Z,90.97
2023-01-13T05:36:03.986Z,90.70
2023-01-13T05:38:31.303Z,91.49
2023-01-13T05:41:18.864Z,91.86
2023-01-13T05:43:46.186Z,91.57
2023-01-13T05:46:15.048Z,91.04
2023-01-13T05:48:43.610Z,90.82
2023-01-13T05:51:13.095Z,89.70
2023-01-13T05:53:43.724Z,88.76
2023-01-13T05:56:11.649Z,89.37
2023-01-13T06:01:08.877Z,89.33
2023-01-13T06:03:36.941Z,89.28
2023-01-13T06:06:04.704Z,89.16
2023-01-13T06:08:32.819Z,89.35
2023-01-13T06:11:00.480Z,89.77
2023-01-13T06:13:28.261Z,89.08
2023-01-13T06:15:59.589Z,89.22
2023-01-13T06:18:28.355Z,89.23
2023-01-13T06:20:56.397Z,88.19
2023-01-13T06:26:05.845Z,88.13
2023-01-13T06:28:33.509Z,88.39
2023-01-13T06:31:04.466Z,88.09
2023-01-13T06:33:38.874Z,87.47
2023-01-13T06:36:14.152Z,85.90
2023-01-13T06:38:45.902Z,87.61
2023-01-13T06:41:13.932Z,88.41
2023-01-13T06:43:41.650Z,88.67
2023-01-13T06:46:08.986Z,88.65
2023-01-13T06:48:36.802Z,89.01
2023-01-13T06:51:05.054Z,88.89
2023-01-13T06:53:32.649Z,88.76
2023-01-13T06:56:00.318Z,88.38
2023-01-13T06:58:27.685Z,88.46
2023-01-13T07:00:55.117Z,88.61
2023-01-13T07:03:22.777Z,87.81
2023-01-13T07:05:56.499Z,87.94
2023-01-13T07:08:25.128Z,87.50
2023-01-13T07:10:53.248Z,87.15
2023-01-13T07:13:47.592Z,86.50
2023-01-13T07:16:15.426Z,86.89
2023-01-13T07:18:42.765Z,86.03
2023-01-13T07:21:13.388Z,86.57
2023-01-13T07:23:42.030Z,85.87
2023-01-13T07:26:10.185Z,87.24
2023-01-13T07:28:38.475Z,86.83
2023-01-13T07:31:14.389Z,88.46
2023-01-13T07:33:41.862Z,88.63
2023-01-13T07:38:40.065Z,88.50
2023-01-13T07:41:26.486Z,86.34
2023-01-13T07:43:54.353Z,87.11
2023-01-13T07:46:21.664Z,88.03
2023-01-13T07:48:49.310Z,87.56
2023-01-13T07:51:17.426Z,87.35
2023-01-13T07:53:44.990Z,86.98
2023-01-13T07:56:12.286Z,87.04
2023-01-13T07:58:40.305Z,86.29
2023-01-13T08:01:12.798Z,85.30
2023-01-13T08:03:41.204Z,84.84
2023-01-13T08:06:09.922Z,84.38
2023-01-13T08:08:38.257Z,83.57
2023-01-13T08:11:07.766Z,82.57
2023-01-13T08:13:35.387Z,83.59
2023-01-13T08:16:08.373Z,80.42
2023-01-13T08:18:37.654Z,76.78
2023-01-13T08:21:11.701Z,79.12
2023-01-13T08:23:40.360Z,78.37
2023-01-13T08:26:13.834Z,75.66
2023-01-13T08:28:41.853Z,73.43
2023-01-13T08:31:14.751Z,72.94
2023-01-13T08:33:42.789Z,73.80
2023-01-13T08:36:12.542Z,70.71
2023-01-13T08:38:41.290Z,72.95
2023-01-13T08:41:12.787Z,71.47
2023-01-13T08:43:40.189Z,69.77
2023-01-13T08:46:07.840Z,70.37
2023-01-13T08:48:35.732Z,68.79
2023-01-13T08:51:08.289Z,68.86
2023-01-13T08:53:36.368Z,70.55
2023-01-13T08:56:11.205Z,69.46
2023-01-13T08:58:39.257Z,69.97
2023-01-13T09:01:08.726Z,71.04
2023-01-13T09:03:36.254Z,70.87
2023-01-13T09:06:04.278Z,72.52
2023-01-13T09:08:31.863Z,73.47
2023-01-13T09:10:59.890Z,72.16
2023-01-13T09:13:27.749Z,72.08
2023-01-13T09:15:56.949Z,70.70
2023-01-13T09:18:24.528Z,71.30
2023-01-13T09:20:52.326Z,72.56
2023-01-13T09:23:20.187Z,74.11
2023-01-13T09:25:48.532Z,73.86
2023-01-13T09:28:16.250Z,70.68
2023-01-13T09:30:43.682Z,70.47
2023-01-13T09:33:29.443Z,72.27
2023-01-13T09:36:01.340Z,71.53
2023-01-13T09:38:28.892Z,72.17
2023-01-13T09:40:56.775Z,70.27
2023-01-13T09:43:53.705Z,71.65
2023-01-13T09:46:47.379Z,72.49
2023-01-13T09:49:31.370Z,73.82
2023-01-13T09:52:07.806Z,74.71
2023-01-13T09:54:43.393Z,74.31
2023-01-13T09:57:16.102Z,73.46
2023-01-13T09:59:44.401Z,74.98
2023-01-13T10:02:15.190Z,77.01
2023-01-13T10:04:42.945Z,77.52
2023-01-13T10:07:15.272Z,76.42
2023-01-13T10:09:52.811Z,76.99
2023-01-13T10:12:43.510Z,75.86
2023-01-13T10:15:17.013Z,74.37
2023-01-13T10:18:11.916Z,74.83
2023-01-13T10:21:15.245Z,74.38
2023-01-13T10:23:57.162Z,73.57
2023-01-13T10:26:44.367Z,74.58
2023-01-13T10:29:27.694Z,74.27
2023-01-13T10:31:56.980Z,75.47
2023-01-13T10:34:25.590Z,74.33
2023-01-13T10:37:03.247Z,77.02
2023-01-13T10:39:40.931Z,77.96
2023-01-13T10:42:17.353Z,77.69
2023-01-13T10:44:49.344Z,77.41
2023-01-13T10:47:27.222Z,77.97
2023-01-13T10:50:06.042Z,76.73
2023-01-13T10:52:38.549Z,77.42
2023-01-13T10:55:30.504Z,77.41
2023-01-13T10:57:58.171Z,76.66
2023-01-13T11:00:33.107Z,77.41
2023-01-13T11:03:12.923Z,77.64
2023-01-13T11:05:51.729Z,76.80
2023-01-13T11:08:31.502Z,77.23
2023-01-13T11:11:00.682Z,77.56
2023-01-13T11:14:02.627Z,78.12
2023-01-13T11:16:30.781Z,79.13
2023-01-13T11:19:13.527Z,77.64
2023-01-13T11:21:58.421Z,77.47
2023-01-13T11:24:45.011Z,77.45
2023-01-13T11:27:33.095Z,76.66
2023-01-13T11:30:33.269Z,76.92
2023-01-13T11:33:10.123Z,76.35
2023-01-13T11:36:06.267Z,76.75
2023-01-13T11:38:57.243Z,77.17
2023-01-13T11:41:37.827Z,76.96
2023-01-13T11:44:18.391Z,78.05
2023-01-13T11:46:50.382Z,76.41
2023-01-13T11:49:31.115Z,75.96
2023-01-13T11:52:18.687Z,75.51
2023-01-13T11:55:01.930Z,76.02
2023-01-13T11:57:57.432Z,75.65
2023-01-13T12:00:50.497Z,75.37
2023-01-13T12:03:35.876Z,75.71
2023-01-13T12:06:08.887Z,76.62
2023-01-13T12:08:52.972Z,77.19
2023-01-13T12:11:33.855Z,76.51
2023-01-13T12:14:25.016Z,78.24
2023-01-13T12:16:52.333Z,79.27
2023-01-13T12:19:29.288Z,77.29
2023-01-13T12:22:03.173Z,77.50
2023-01-13T12:24:40.959Z,77.60
2023-01-13T12:27:21.327Z,75.95
2023-01-13T12:29:52.328Z,76.67
2023-01-13T12:32:25.233Z,76.39
2023-01-13T12:35:17.336Z,76.69
2023-01-13T12:37:54.607Z,77.53
2023-01-13T12:40:41.717Z,76.30
2023-01-13T12:43:35.006Z,76.67
2023-01-13T12:46:24.682Z,77.10
2023-01-13T12:48:55.528Z,76.91
2023-01-13T12:51:25.371Z,74.75
2023-01-13T12:53:55.057Z,75.86
2023-01-13T12:56:36.482Z,75.66
2023-01-13T12:59:19.605Z,76.42
2023-01-13T13:01:49.475Z,75.05
2023-01-13T13:04:20.841Z,75.22
2023-01-13T13:07:26.799Z,74.99
2023-01-13T13:09:57.796Z,75.64
2023-01-13T13:12:50.114Z,75.02
2023-01-13T13:15:28.952Z,74.95
2023-01-13T13:17:59.783Z,75.35
2023-01-13T13:20:54.170Z,76.32
2023-01-13T13:23:53.229Z,74.50
2023-01-13T13:26:28.790Z,74.50
2023-01-13T13:29:24.339Z,75.65
2023-01-13T13:32:36.311Z,72.90
2023-01-13T13:35:43.389Z,74.71
2023-01-13T13:38:41.552Z,74.33
2023-01-13T13:41:37.288Z,75.29
2023-01-13T13:44:48.601Z,73.38
2023-01-13T13:47:16.460Z,74.12
2023-01-13T13:49:54.332Z,74.27
2023-01-13T13:52:32.069Z,73.68
2023-01-13T13:55:08.926Z,72.15
2023-01-13T13:57:42.714Z,72.17
2023-01-13T14:00:17.271Z,72.80
2023-01-13T14:03:19.649Z,73.80
2023-01-13T14:06:02.847Z,74.69
2023-01-13T14:08:34.062Z,74.24
2023-01-13T14:11:02.003Z,74.92
2023-01-13T14:13:31.825Z,75.86
2023-01-13T14:16:04.815Z,76.50
2023-01-13T14:18:45.868Z,76.10
2023-01-13T14:21:26.391Z,76.12
2023-01-13T14:23:56.785Z,76.10
2023-01-13T14:26:27.711Z,75.85
2023-01-13T14:28:56.819Z,74.70
2023-01-13T14:31:25.329Z,75.81
2023-01-13T14:33:55.903Z,75.42
2023-01-13T14:36:25.715Z,75.98
2023-01-13T14:39:05.535Z,75.05
2023-01-13T14:41:53.641Z,73.67
2023-01-13T14:44:32.426Z,74.26
2023-01-13T14:47:17.457Z,74.58
2023-01-13T14:49:57.099Z,74.25
2023-01-13T14:52:25.031Z,75.71
2023-01-13T14:55:04.907Z,74.70
2023-01-13T14:57:34.181Z,75.16
2023-01-13T15:00:13.859Z,75.95
2023-01-13T15:03:13.736Z,76.01
2023-01-13T15:05:52.555Z,76.56
2023-01-13T15:08:28.263Z,76.11
2023-01-13T15:11:02.315Z,76.75
2023-01-13T15:13:38.134Z,77.33
2023-01-13T15:16:13.619Z,77.49
2023-01-13T15:18:41.458Z,77.17
2023-01-13T15:21:09.683Z,76.76
2023-01-13T15:23:38.653Z,76.24
2023-01-13T15:26:23.055Z,76.35
2023-01-13T15:28:51.852Z,75.99
2023-01-13T15:31:19.756Z,76.62
2023-01-13T15:33:47.329Z,76.84
2023-01-13T15:36:27.934Z,77.00
2023-01-13T15:38:55.656Z,75.78
2023-01-13T15:41:42.811Z,75.82
2023-01-13T15:44:30.307Z,76.31
2023-01-13T15:47:00.732Z,77.22
2023-01-13T15:49:45.337Z,77.84
2023-01-13T15:52:23.638Z,77.22
2023-01-13T15:54:51.966Z,77.32
2023-01-13T15:57:28.501Z,77.44
2023-01-13T15:59:58.269Z,77.90
2023-01-13T16:02:26.945Z,77.76
2023-01-13T16:04:55.000Z,78.10
2023-01-13T16:07:24.633Z,77.99
2023-01-13T16:09:52.511Z,78.21
2023-01-13T16:12:20.461Z,78.77
2023-01-13T16:14:47.764Z,78.50
2023-01-13T16:17:21.895Z,77.88
2023-01-13T16:19:50.035Z,77.62
2023-01-13T16:22:18.736Z,77.52
2023-01-13T16:24:46.351Z,77.66
2023-01-13T16:27:17.695Z,78.72
2023-01-13T16:29:46.071Z,77.96
2023-01-13T16:32:14.833Z,77.75
2023-01-13T16:34:43.067Z,78.12
2023-01-13T16:37:26.291Z,78.62
2023-01-13T16:39:54.577Z,78.83
2023-01-13T16:42:22.176Z,77.76
2023-01-13T16:44:50.867Z,77.05
2023-01-13T16:47:19.129Z,76.93
2023-01-13T16:49:46.603Z,77.62
2023-01-13T16:52:14.259Z,77.60
2023-01-13T16:54:41.843Z,78.06
2023-01-13T16:57:13.410Z,78.29
2023-01-13T16:59:40.745Z,78.08
2023-01-13T17:02:16.075Z,78.74
2023-01-13T17:04:43.679Z,78.24
2023-01-13T17:07:17.230Z,78.02
2023-01-13T17:09:44.793Z,78.11
2023-01-13T17:12:12.550Z,77.52
2023-01-13T17:14:40.227Z,77.94
2023-01-13T17:17:19.919Z,78.60
2023-01-13T17:19:47.593Z,78.52
2023-01-13T17:22:15.144Z,78.73
2023-01-13T17:24:42.762Z,78.61
2023-01-13T17:27:10.463Z,78.42
2023-01-13T17:29:38.527Z,78.23
2023-01-13T17:32:06.110Z,78.25
2023-01-13T17:34:33.855Z,79.23
2023-01-13T17:37:01.205Z,79.78
2023-01-13T17:39:28.538Z,80.16
2023-01-13T17:41:56.146Z,80.51
2023-01-13T17:44:23.755Z,81.11
2023-01-13T17:46:51.505Z,80.47
2023-01-13T17:49:21.994Z,80.09
2023-01-13T17:51:51.239Z,79.71
2023-01-13T17:54:21.138Z,79.91
2023-01-13T17:56:48.481Z,80.00
2023-01-13T17:59:18.723Z,80.12
2023-01-13T18:01:46.994Z,79.79
2023-01-13T18:04:21.441Z,79.86
2023-01-13T18:06:49.341Z,79.58
2023-01-13T18:09:18.067Z,79.01
2023-01-13T18:11:47.207Z,79.29
2023-01-13T18:14:16.530Z,78.90
2023-01-13T18:16:44.379Z,78.69
2023-01-13T18:19:30.261Z,79.77
2023-01-13T18:22:16.536Z,80.93
2023-01-13T18:25:03.034Z,80.71
2023-01-13T18:27:38.226Z,80.55
2023-01-13T18:30:06.817Z,82.33
2023-01-13T18:32:34.987Z,82.01
2023-01-13T18:35:06.641Z,82.00
2023-01-13T18:37:42.410Z,82.74
2023-01-13T18:40:13.404Z,82.10
2023-01-13T18:42:58.439Z,79.91
2023-01-13T18:45:29.506Z,80.18
2023-01-13T18:48:00.585Z,80.66
2023-01-13T18:50:28.577Z,80.57
2023-01-13T18:52:56.856Z,81.04
2023-01-13T18:55:25.177Z,81.18
2023-01-13T18:57:53.395Z,80.97
2023-01-13T19:00:22.346Z,80.04
2023-01-13T19:05:35.370Z,80.72
2023-01-13T19:08:04.101Z,80.43
2023-01-13T19:10:32.804Z,81.13
2023-01-13T19:13:01.852Z,81.81
2023-01-13T19:15:29.664Z,81.66
2023-01-13T19:17:56.862Z,81.55
2023-01-13T19:20:24.331Z,81.22
2023-01-13T19:22:54.502Z,81.42
2023-01-13T19:25:21.995Z,82.06
2023-01-13T19:27:49.359Z,81.81
2023-01-13T19:30:17.600Z,81.54
2023-01-13T19:32:45.141Z,82.52
2023-01-13T19:35:13.291Z,82.34
2023-01-13T19:37:41.062Z,82.25
2023-01-13T19:40:09.791Z,82.23
2023-01-13T19:42:55.793Z,81.85
2023-01-13T19:45:35.313Z,82.17
2023-01-13T19:48:04.776Z,82.45
2023-01-13T19:50:35.947Z,82.16
2023-01-13T19:53:03.131Z,81.68
2023-01-13T19:55:32.022Z,81.64
2023-01-13T19:57:59.549Z,82.11
2023-01-13T20:00:26.686Z,81.64
2023-01-13T20:02:56.925Z,81.65
2023-01-13T20:05:26.133Z,81.89
2023-01-13T20:07:54.171Z,82.14
2023-01-13T20:10:22.573Z,82.14
2023-01-13T20:12:49.752Z,82.01
2023-01-13T20:15:17.545Z,81.79
2023-01-13T20:17:44.816Z,81.06
2023-01-13T20:20:12.215Z,81.49
2023-01-13T20:22:40.267Z,82.27
2023-01-13T20:25:07.834Z,81.79
2023-01-13T20:27:35.141Z,82.05
2023-01-13T20:30:02.901Z,82.67
2023-01-13T20:32:30.046Z,82.96
2023-01-13T20:34:57.455Z,83.44
2023-01-13T20:37:25.157Z,83.44
2023-01-13T20:39:52.336Z,83.13
2023-01-13T20:42:51.739Z,83.36
2023-01-13T20:45:21.710Z,83.81
2023-01-13T20:47:49.111Z,82.52
2023-01-13T20:50:16.575Z,82.75
2023-01-13T20:52:44.145Z,82.75
2023-01-13T20:55:12.066Z,82.86
2023-01-13T20:57:39.979Z,83.07
2023-01-13T21:00:08.044Z,83.37
2023-01-13T21:02:35.306Z,83.76
2023-01-13T21:05:02.489Z,83.37
2023-01-13T21:07:30.013Z,83.59
2023-01-13T21:09:57.988Z,82.78
2023-01-13T21:12:43.616Z,82.34
2023-01-13T21:15:17.619Z,82.76
2023-01-13T21:18:04.150Z,82.78
2023-01-13T21:20:36.348Z,82.35
2023-01-13T21:23:04.291Z,83.11
2023-01-13T21:25:35.155Z,83.49
2023-01-13T21:28:11.585Z,83.37
2023-01-13T21:30:39.608Z,83.52
2023-01-13T21:33:06.823Z,84.47
2023-01-13T21:35:37.276Z,84.09
2023-01-13T21:38:04.860Z,83.70
2023-01-13T21:40:32.054Z,84.16
2023-01-13T21:43:17.980Z,84.46
2023-01-13T21:46:05.568Z,83.56
2023-01-13T21:48:33.116Z,83.54
2023-01-13T21:51:01.506Z,82.53
2023-01-13T21:53:28.804Z,83.04
2023-01-13T21:55:56.297Z,83.52
2023-01-13T21:58:23.841Z,83.60
2023-01-13T22:00:51.010Z,83.23
2023-01-13T22:03:18.941Z,84.17
2023-01-13T22:05:46.593Z,84.74
2023-01-13T22:08:13.922Z,85.25
2023-01-13T22:10:58.098Z,85.02
2023-01-13T22:13:44.857Z,84.91
2023-01-13T22:16:12.533Z,84.80
2023-01-13T22:18:39.997Z,84.74
2023-01-13T22:21:07.311Z,85.22
2023-01-13T22:23:34.861Z,85.03
2023-01-13T22:26:05.814Z,85.04
2023-01-13T22:28:43.405Z,84.83
2023-01-13T22:31:12.376Z,84.92
2023-01-13T22:33:40.334Z,84.38
2023-01-13T22:36:08.627Z,84.56
2023-01-13T22:38:36.614Z,84.47
2023-01-13T22:41:06.722Z,85.47
2023-01-13T22:43:34.434Z,85.21
2023-01-13T22:46:07.083Z,86.11
2023-01-13T22:48:34.703Z,86.00
2023-01-13T22:51:30.652Z,86.61
2023-01-13T22:53:58.015Z,86.87
2023-01-13T22:56:26.147Z,85.94
2023-01-13T22:58:54.560Z,85.68
2023-01-13T23:01:22.590Z,86.72
2023-01-13T23:03:50.756Z,87.72
2023-01-13T23:06:18.644Z,88.33
2023-01-13T23:08:46.528Z,88.84
2023-01-13T23:11:15.317Z,88.20
2023-01-13T23:13:43.418Z,87.22
2023-01-13T23:16:12.147Z,87.22
2023-01-13T23:18:42.717Z,86.93
2023-01-13T23:21:12.065Z,86.25
2023-01-13T23:23:39.899Z,85.78
2023-01-13T23:26:07.753Z,85.22
2023-01-13T23:28:35.718Z,85.50
2023-01-13T23:31:07.531Z,85.92
2023-01-13T23:33:34.896Z,85.72
2023-01-13T23:36:04.221Z,85.87
2023-01-13T23:38:31.741Z,84.89
2023-01-13T23:40:59.411Z,85.29
2023-01-13T23:43:27.420Z,85.88
2023-01-13T23:46:05.284Z,86.35
2023-01-13T23:48:33.397Z,86.51
2023-01-13T23:51:01.140Z,86.23
2023-01-13T23:53:33.638Z,86.46
2023-01-13T23:56:01.979Z,86.99
2023-01-13T23:58:29.707Z,87.37
